sensor_id;sensor_type;location;lat;lon;timestamp;pressure;altitude;pressure_sealevel;temperature;humidity
35918;BME280;22011;59.912;30.300;2023-02-15T00:01:15;102614.13;;;2.26;66.01
35918;BME280;22011;59.912;30.300;2023-02-15T00:03:42;102606.28;;;2.24;65.98
35918;BME280;22011;59.912;30.300;2023-02-15T00:06:10;102609.84;;;2.23;66.29
35918;BME280;22011;59.912;30.300;2023-02-15T00:08:39;102602.69;;;2.27;66.02
35918;BME280;22011;59.912;30.300;2023-02-15T00:11:07;102598.13;;;2.30;65.76
35918;BME280;22011;59.912;30.300;2023-02-15T00:13:35;102609.44;;;2.33;65.58
35918;BME280;22011;59.912;30.300;2023-02-15T00:16:06;102599.44;;;2.41;66.04
35918;BME280;22011;59.912;30.300;2023-02-15T00:18:35;102599.50;;;2.39;66.09
35918;BME280;22011;59.912;30.300;2023-02-15T00:21:04;102602.06;;;2.41;66.48
35918;BME280;22011;59.912;30.300;2023-02-15T00:23:31;102605.63;;;2.40;65.80
35918;BME280;22011;59.912;30.300;2023-02-15T00:26:08;102612.19;;;2.50;66.53
35918;BME280;22011;59.912;30.300;2023-02-15T00:28:36;102606.53;;;2.39;66.28
35918;BME280;22011;59.912;30.300;2023-02-15T00:31:05;102603.66;;;2.45;66.46
35918;BME280;22011;59.912;30.300;2023-02-15T00:33:35;102603.50;;;2.48;66.30
35918;BME280;22011;59.912;30.300;2023-02-15T00:36:04;102604.16;;;2.53;65.63
35918;BME280;22011;59.912;30.300;2023-02-15T00:38:32;102602.31;;;2.55;65.30
35918;BME280;22011;59.912;30.300;2023-02-15T00:41:01;102601.25;;;2.59;64.53
35918;BME280;22011;59.912;30.300;2023-02-15T00:43:31;102595.72;;;2.65;65.35
35918;BME280;22011;59.912;30.300;2023-02-15T00:45:59;102599.84;;;2.89;65.80
35918;BME280;22011;59.912;30.300;2023-02-15T00:48:26;102603.47;;;2.68;65.32
35918;BME280;22011;59.912;30.300;2023-02-15T00:50:55;102600.84;;;2.68;65.46
35918;BME280;22011;59.912;30.300;2023-02-15T00:53:24;102598.13;;;2.70;65.29
35918;BME280;22011;59.912;30.300;2023-02-15T00:55:52;102594.59;;;2.71;65.24
35918;BME280;22011;59.912;30.300;2023-02-15T00:58:20;102591.09;;;2.70;64.79
35918;BME280;22011;59.912;30.300;2023-02-15T01:00:49;102584.06;;;2.71;65.33
35918;BME280;22011;59.912;30.300;2023-02-15T01:03:18;102589.38;;;2.69;65.13
35918;BME280;22011;59.912;30.300;2023-02-15T01:05:47;102590.38;;;2.67;64.75
35918;BME280;22011;59.912;30.300;2023-02-15T01:08:16;102583.41;;;2.66;64.28
35918;BME280;22011;59.912;30.300;2023-02-15T01:10:43;102594.88;;;2.65;64.71
35918;BME280;22011;59.912;30.300;2023-02-15T01:13:14;102600.06;;;2.66;64.53
35918;BME280;22011;59.912;30.300;2023-02-15T01:15:43;102599.34;;;2.62;65.13
35918;BME280;22011;59.912;30.300;2023-02-15T01:18:12;102602.81;;;2.63;65.18
35918;BME280;22011;59.912;30.300;2023-02-15T01:20:39;102592.56;;;2.57;64.51
35918;BME280;22011;59.912;30.300;2023-02-15T01:23:08;102597.78;;;2.58;64.78
35918;BME280;22011;59.912;30.300;2023-02-15T01:25:36;102589.81;;;2.60;64.05
35918;BME280;22011;59.912;30.300;2023-02-15T01:28:04;102587.81;;;2.65;64.24
35918;BME280;22011;59.912;30.300;2023-02-15T01:30:32;102580.50;;;2.72;63.83
35918;BME280;22011;59.912;30.300;2023-02-15T01:33:00;102576.88;;;2.74;63.84
35918;BME280;22011;59.912;30.300;2023-02-15T01:35:32;102573.19;;;2.78;64.32
35918;BME280;22011;59.912;30.300;2023-02-15T01:37:59;102570.81;;;2.72;64.14
35918;BME280;22011;59.912;30.300;2023-02-15T01:40:27;102574.53;;;2.68;63.92
35918;BME280;22011;59.912;30.300;2023-02-15T01:42:55;102579.66;;;2.71;64.93
35918;BME280;22011;59.912;30.300;2023-02-15T01:45:26;102575.94;;;2.75;64.85
35918;BME280;22011;59.912;30.300;2023-02-15T01:47:56;102581.28;;;2.74;64.35
35918;BME280;22011;59.912;30.300;2023-02-15T01:50:28;102586.53;;;2.74;64.54
35918;BME280;22011;59.912;30.300;2023-02-15T01:53:08;102578.88;;;2.88;65.18
35918;BME280;22011;59.912;30.300;2023-02-15T01:55:42;102579.00;;;2.85;64.80
35918;BME280;22011;59.912;30.300;2023-02-15T01:58:12;102577.22;;;2.85;64.21
35918;BME280;22011;59.912;30.300;2023-02-15T02:00:40;102577.09;;;2.88;64.64
35918;BME280;22011;59.912;30.300;2023-02-15T02:03:08;102570.13;;;2.87;64.12
35918;BME280;22011;59.912;30.300;2023-02-15T02:05:37;102562.16;;;2.89;64.82
35918;BME280;22011;59.912;30.300;2023-02-15T02:08:07;102556.16;;;2.85;65.64
35918;BME280;22011;59.912;30.300;2023-02-15T02:10:36;102561.72;;;2.79;65.45
35918;BME280;22011;59.912;30.300;2023-02-15T02:13:05;102557.38;;;2.78;65.68
35918;BME280;22011;59.912;30.300;2023-02-15T02:15:40;102563.28;;;2.83;65.48
35918;BME280;22011;59.912;30.300;2023-02-15T02:18:20;102566.84;;;2.82;65.85
35918;BME280;22011;59.912;30.300;2023-02-15T02:23:58;102564.84;;;2.87;66.36
35918;BME280;22011;59.912;30.300;2023-02-15T02:26:55;102558.53;;;2.91;66.67
35918;BME280;22011;59.912;30.300;2023-02-15T02:35:18;102557.88;;;2.86;65.84
35918;BME280;22011;59.912;30.300;2023-02-15T02:37:51;102548.56;;;2.79;65.22
35918;BME280;22011;59.912;30.300;2023-02-15T02:40:27;102554.47;;;2.84;65.08
35918;BME280;22011;59.912;30.300;2023-02-15T02:43:01;102544.00;;;2.83;65.21
35918;BME280;22011;59.912;30.300;2023-02-15T02:45:37;102547.50;;;2.83;64.59
35918;BME280;22011;59.912;30.300;2023-02-15T02:48:09;102547.72;;;2.79;64.90
35918;BME280;22011;59.912;30.300;2023-02-15T02:50:41;102553.03;;;2.77;64.90
35918;BME280;22011;59.912;30.300;2023-02-15T02:53:10;102555.88;;;2.73;65.13
35918;BME280;22011;59.912;30.300;2023-02-15T02:55:41;102557.31;;;2.80;65.67
35918;BME280;22011;59.912;30.300;2023-02-15T02:58:17;102553.75;;;2.81;65.49
35918;BME280;22011;59.912;30.300;2023-02-15T03:00:50;102558.16;;;2.80;65.31
35918;BME280;22011;59.912;30.300;2023-02-15T03:03:25;102544.00;;;2.83;65.22
35918;BME280;22011;59.912;30.300;2023-02-15T03:05:58;102549.34;;;2.81;65.49
35918;BME280;22011;59.912;30.300;2023-02-15T03:08:32;102552.75;;;2.83;65.12
35918;BME280;22011;59.912;30.300;2023-02-15T03:11:01;102544.28;;;2.77;65.08
35918;BME280;22011;59.912;30.300;2023-02-15T03:13:29;102538.09;;;2.78;64.95
35918;BME280;22011;59.912;30.300;2023-02-15T03:15:58;102539.81;;;2.79;64.52
35918;BME280;22011;59.912;30.300;2023-02-15T03:18:47;102537.81;;;2.84;64.50
35918;BME280;22011;59.912;30.300;2023-02-15T03:21:28;102545.50;;;2.88;64.92
35918;BME280;22011;59.912;30.300;2023-02-15T03:24:03;102543.09;;;2.84;64.33
35918;BME280;22011;59.912;30.300;2023-02-15T03:26:33;102540.59;;;2.81;64.36
35918;BME280;22011;59.912;30.300;2023-02-15T03:29:02;102529.13;;;2.82;64.29
35918;BME280;22011;59.912;30.300;2023-02-15T03:31:34;102530.84;;;2.83;64.68
35918;BME280;22011;59.912;30.300;2023-02-15T03:34:04;102532.63;;;2.82;64.95
35918;BME280;22011;59.912;30.300;2023-02-15T03:36:43;102542.00;;;2.88;64.99
35918;BME280;22011;59.912;30.300;2023-02-15T03:39:18;102535.91;;;2.87;64.96
35918;BME280;22011;59.912;30.300;2023-02-15T03:41:53;102534.25;;;2.85;65.04
35918;BME280;22011;59.912;30.300;2023-02-15T03:44:27;102529.69;;;2.88;64.87
35918;BME280;22011;59.912;30.300;2023-02-15T03:47:00;102540.09;;;2.91;65.39
35918;BME280;22011;59.912;30.300;2023-02-15T03:49:38;102542.56;;;2.94;65.16
35918;BME280;22011;59.912;30.300;2023-02-15T03:52:09;102537.44;;;2.91;64.25
35918;BME280;22011;59.912;30.300;2023-02-15T03:54:38;102535.13;;;2.85;63.96
35918;BME280;22011;59.912;30.300;2023-02-15T03:57:12;102539.38;;;2.88;64.57
35918;BME280;22011;59.912;30.300;2023-02-15T03:59:58;102531.56;;;2.86;64.88
35918;BME280;22011;59.912;30.300;2023-02-15T04:02:54;102539.81;;;2.98;65.01
35918;BME280;22011;59.912;30.300;2023-02-15T04:05:26;102532.41;;;2.87;64.83
35918;BME280;22011;59.912;30.300;2023-02-15T04:07:55;102532.34;;;2.88;64.93
35918;BME280;22011;59.912;30.300;2023-02-15T04:10:22;102538.53;;;2.87;64.39
35918;BME280;22011;59.912;30.300;2023-02-15T04:13:07;102535.91;;;2.87;64.57
35918;BME280;22011;59.912;30.300;2023-02-15T04:15:34;102535.13;;;2.85;64.53
35918;BME280;22011;59.912;30.300;2023-02-15T04:18:19;102531.47;;;2.88;64.54
35918;BME280;22011;59.912;30.300;2023-02-15T04:20:47;102540.22;;;2.88;64.32
35918;BME280;22011;59.912;30.300;2023-02-15T04:23:33;102543.66;;;2.90;65.01
35918;BME280;22011;59.912;30.300;2023-02-15T04:26:18;102540.22;;;2.88;64.72
35918;BME280;22011;59.912;30.300;2023-02-15T04:28:46;102537.53;;;2.90;64.55
35918;BME280;22011;59.912;30.300;2023-02-15T04:31:13;102541.00;;;2.90;64.21
35918;BME280;22011;59.912;30.300;2023-02-15T04:33:41;102541.78;;;2.92;63.55
35918;BME280;22011;59.912;30.300;2023-02-15T04:36:09;102539.16;;;2.92;63.33
35918;BME280;22011;59.912;30.300;2023-02-15T04:38:38;102541.66;;;2.95;63.93
35918;BME280;22011;59.912;30.300;2023-02-15T04:41:06;102535.59;;;2.93;63.61
35918;BME280;22011;59.912;30.300;2023-02-15T04:43:33;102544.28;;;2.95;63.45
35918;BME280;22011;59.912;30.300;2023-02-15T04:46:01;102544.28;;;2.95;63.41
35918;BME280;22011;59.912;30.300;2023-02-15T04:48:29;102545.06;;;2.98;63.08
35918;BME280;22011;59.912;30.300;2023-02-15T04:50:57;102547.84;;;2.94;63.65
35918;BME280;22011;59.912;30.300;2023-02-15T04:53:24;102546.91;;;2.95;64.03
35918;BME280;22011;59.912;30.300;2023-02-15T04:55:53;102538.88;;;2.99;63.29
35918;BME280;22011;59.912;30.300;2023-02-15T04:58:21;102530.19;;;2.97;63.36
35918;BME280;22011;59.912;30.300;2023-02-15T05:00:48;102536.25;;;2.99;63.39
35918;BME280;22011;59.912;30.300;2023-02-15T05:03:16;102538.72;;;3.02;63.43
35918;BME280;22011;59.912;30.300;2023-02-15T05:05:43;102542.91;;;3.06;63.39
35918;BME280;22011;59.912;30.300;2023-02-15T05:08:10;102542.13;;;3.04;63.18
35918;BME280;22011;59.912;30.300;2023-02-15T05:10:38;102541.22;;;3.05;63.40
35918;BME280;22011;59.912;30.300;2023-02-15T05:13:07;102544.63;;;3.07;63.75
35918;BME280;22011;59.912;30.300;2023-02-15T05:15:34;102546.47;;;3.05;63.37
35918;BME280;22011;59.912;30.300;2023-02-15T05:18:02;102544.78;;;3.04;63.48
35918;BME280;22011;59.912;30.300;2023-02-15T05:20:30;102541.22;;;3.05;63.21
35918;BME280;22011;59.912;30.300;2023-02-15T05:22:57;102537.66;;;3.06;63.22
35918;BME280;22011;59.912;30.300;2023-02-15T05:25:25;102541.00;;;3.09;62.69
35918;BME280;22011;59.912;30.300;2023-02-15T05:28:11;102536.31;;;3.14;64.20
35918;BME280;22011;59.912;30.300;2023-02-15T05:30:48;102543.63;;;3.09;63.49
35918;BME280;22011;59.912;30.300;2023-02-15T05:33:17;102554.09;;;3.11;63.69
35918;BME280;22011;59.912;30.300;2023-02-15T05:35:44;102548.91;;;3.09;63.58
35918;BME280;22011;59.912;30.300;2023-02-15T05:38:12;102552.44;;;3.08;63.34
35918;BME280;22011;59.912;30.300;2023-02-15T05:40:39;102548.03;;;3.09;63.60
35918;BME280;22011;59.912;30.300;2023-02-15T05:43:07;102543.56;;;3.11;63.69
35918;BME280;22011;59.912;30.300;2023-02-15T05:45:36;102551.13;;;3.17;63.35
35918;BME280;22011;59.912;30.300;2023-02-15T05:48:03;102539.66;;;3.18;62.70
35918;BME280;22011;59.912;30.300;2023-02-15T05:50:31;102535.03;;;3.23;62.92
35918;BME280;22011;59.912;30.300;2023-02-15T05:52:59;102529.91;;;3.20;62.97
35918;BME280;22011;59.912;30.300;2023-02-15T05:55:27;102529.91;;;3.20;63.37
35918;BME280;22011;59.912;30.300;2023-02-15T05:57:54;102530.06;;;3.17;63.38
35918;BME280;22011;59.912;30.300;2023-02-15T06:00:22;102543.44;;;3.12;63.07
35918;BME280;22011;59.912;30.300;2023-02-15T06:02:52;102537.09;;;3.16;63.25
35918;BME280;22011;59.912;30.300;2023-02-15T06:05:20;102532.09;;;3.12;63.04
35918;BME280;22011;59.912;30.300;2023-02-15T06:07:47;102529.47;;;3.12;63.06
35918;BME280;22011;59.912;30.300;2023-02-15T06:10:15;102537.50;;;3.09;62.99
35918;BME280;22011;59.912;30.300;2023-02-15T06:12:43;102532.25;;;3.09;63.65
35918;BME280;22011;59.912;30.300;2023-02-15T06:15:11;102540.06;;;3.10;62.86
35918;BME280;22011;59.912;30.300;2023-02-15T06:17:40;102545.34;;;3.10;63.37
35918;BME280;22011;59.912;30.300;2023-02-15T06:20:11;102541.59;;;3.14;64.14
35918;BME280;22011;59.912;30.300;2023-02-15T06:22:39;102542.78;;;3.09;63.40
35918;BME280;22011;59.912;30.300;2023-02-15T06:25:07;102535.66;;;3.11;63.89
35918;BME280;22011;59.912;30.300;2023-02-15T06:27:36;102527.75;;;3.11;63.39
35918;BME280;22011;59.912;30.300;2023-02-15T06:30:05;102529.47;;;3.12;63.96
35918;BME280;22011;59.912;30.300;2023-02-15T06:32:33;102534.81;;;3.10;63.86
35918;BME280;22011;59.912;30.300;2023-02-15T06:35:00;102540.91;;;3.11;64.28
35918;BME280;22011;59.912;30.300;2023-02-15T06:37:30;102536.31;;;3.14;63.65
35918;BME280;22011;59.912;30.300;2023-02-15T06:39:57;102542.63;;;3.12;63.22
35918;BME280;22011;59.912;30.300;2023-02-15T06:42:25;102544.31;;;3.13;63.46
35918;BME280;22011;59.912;30.300;2023-02-15T06:44:52;102545.25;;;3.12;63.35
35918;BME280;22011;59.912;30.300;2023-02-15T06:47:20;102551.28;;;3.14;63.43
35918;BME280;22011;59.912;30.300;2023-02-15T06:49:47;102551.97;;;3.17;63.44
35918;BME280;22011;59.912;30.300;2023-02-15T06:52:15;102543.84;;;3.22;63.34
35918;BME280;22011;59.912;30.300;2023-02-15T06:54:44;102546.50;;;3.22;63.08
35918;BME280;22011;59.912;30.300;2023-02-15T06:57:11;102543.22;;;3.17;63.20
35918;BME280;22011;59.912;30.300;2023-02-15T06:59:39;102548.56;;;3.15;63.14
35918;BME280;22011;59.912;30.300;2023-02-15T07:02:07;102551.28;;;3.14;63.80
35918;BME280;22011;59.912;30.300;2023-02-15T07:04:35;102551.28;;;3.14;63.68
35918;BME280;22011;59.912;30.300;2023-02-15T07:07:03;102547.72;;;3.15;63.74
35918;BME280;22011;59.912;30.300;2023-02-15T07:09:30;102548.56;;;3.15;63.59
35918;BME280;22011;59.912;30.300;2023-02-15T07:11:59;102547.56;;;3.18;64.14
35918;BME280;22011;59.912;30.300;2023-02-15T07:14:44;102542.44;;;3.15;63.72
35918;BME280;22011;59.912;30.300;2023-02-15T07:17:12;102559.03;;;3.17;63.75
35918;BME280;22011;59.912;30.300;2023-02-15T07:19:39;102557.09;;;3.20;63.35
35918;BME280;22011;59.912;30.300;2023-02-15T07:22:07;102544.94;;;3.18;63.45
35918;BME280;22011;59.912;30.300;2023-02-15T07:24:34;102555.63;;;3.15;63.42
35918;BME280;22011;59.912;30.300;2023-02-15T07:27:04;102549.28;;;3.19;63.59
35918;BME280;22011;59.912;30.300;2023-02-15T07:29:33;102563.31;;;3.19;63.98
35918;BME280;22011;59.912;30.300;2023-02-15T07:32:01;102561.44;;;3.21;63.98
35918;BME280;22011;59.912;30.300;2023-02-15T07:34:28;102568.19;;;3.27;63.71
35918;BME280;22011;59.912;30.300;2023-02-15T07:36:55;102557.81;;;3.24;63.56
35918;BME280;22011;59.912;30.300;2023-02-15T07:39:23;102562.94;;;3.27;64.19
35918;BME280;22011;59.912;30.300;2023-02-15T07:41:51;102555.94;;;3.26;64.31
35918;BME280;22011;59.912;30.300;2023-02-15T07:44:20;102557.50;;;3.30;64.15
35918;BME280;22011;59.912;30.300;2023-02-15T07:46:47;102561.06;;;3.29;63.80
35918;BME280;22011;59.912;30.300;2023-02-15T07:49:15;102566.19;;;3.32;63.52
35918;BME280;22011;59.912;30.300;2023-02-15T07:51:43;102566.19;;;3.32;63.88
35918;BME280;22011;59.912;30.300;2023-02-15T07:54:11;102572.25;;;3.34;64.40
35918;BME280;22011;59.912;30.300;2023-02-15T07:56:38;102569.75;;;3.31;64.09
35918;BME280;22011;59.912;30.300;2023-02-15T07:59:06;102575.03;;;3.31;64.37
35918;BME280;22011;59.912;30.300;2023-02-15T08:01:37;102576.44;;;3.38;64.72
35918;BME280;22011;59.912;30.300;2023-02-15T08:04:06;102571.94;;;3.40;63.62
35918;BME280;22011;59.912;30.300;2023-02-15T08:06:36;102568.38;;;3.41;63.40
35918;BME280;22011;59.912;30.300;2023-02-15T08:09:04;102571.03;;;3.41;64.05
35918;BME280;22011;59.912;30.300;2023-02-15T08:11:34;102572.88;;;3.39;63.71
35918;BME280;22011;59.912;30.300;2023-02-15T08:14:05;102571.16;;;3.38;64.37
35918;BME280;22011;59.912;30.300;2023-02-15T08:16:36;102569.16;;;3.43;63.55
35918;BME280;22011;59.912;30.300;2023-02-15T08:19:07;102578.16;;;3.39;63.67
35918;BME280;22011;59.912;30.300;2023-02-15T08:21:36;102572.88;;;3.39;63.94
35918;BME280;22011;59.912;30.300;2023-02-15T08:24:05;102575.50;;;3.39;64.34
35918;BME280;22011;59.912;30.300;2023-02-15T08:26:33;102571.31;;;3.35;63.73
35918;BME280;22011;59.912;30.300;2023-02-15T08:29:02;102583.56;;;3.36;63.92
35918;BME280;22011;59.912;30.300;2023-02-15T08:31:30;102585.34;;;3.36;64.29
35918;BME280;22011;59.912;30.300;2023-02-15T08:33:59;102574.72;;;3.37;64.78
35918;BME280;22011;59.912;30.300;2023-02-15T08:36:28;102572.72;;;3.42;64.47
35918;BME280;22011;59.912;30.300;2023-02-15T08:38:58;102576.28;;;3.41;64.14
35918;BME280;22011;59.912;30.300;2023-02-15T08:41:28;102575.38;;;3.42;64.46
35918;BME280;22011;59.912;30.300;2023-02-15T08:43:58;102565.69;;;3.43;64.86
35918;BME280;22011;59.912;30.300;2023-02-15T08:46:28;102573.66;;;3.41;63.90
35918;BME280;22011;59.912;30.300;2023-02-15T08:48:56;102571.03;;;3.41;64.45
35918;BME280;22011;59.912;30.300;2023-02-15T08:51:27;102569.94;;;3.45;64.56
35918;BME280;22011;59.912;30.300;2023-02-15T08:53:56;102579.41;;;3.49;64.87
35918;BME280;22011;59.912;30.300;2023-02-15T08:56:26;102579.97;;;3.56;63.97
35918;BME280;22011;59.912;30.300;2023-02-15T08:58:55;102570.03;;;3.61;63.35
35918;BME280;22011;59.912;30.300;2023-02-15T09:01:24;102568.81;;;3.68;62.73
35918;BME280;22011;59.912;30.300;2023-02-15T09:03:55;102563.16;;;3.76;62.99
35918;BME280;22011;59.912;30.300;2023-02-15T09:06:26;102562.38;;;3.74;63.60
35918;BME280;22011;59.912;30.300;2023-02-15T09:08:54;102557.88;;;3.76;64.09
35918;BME280;22011;59.912;30.300;2023-02-15T09:11:24;102555.47;;;3.71;63.57
35918;BME280;22011;59.912;30.300;2023-02-15T09:13:54;102556.31;;;3.72;64.40
35918;BME280;22011;59.912;30.300;2023-02-15T09:16:24;102557.25;;;3.71;64.54
35918;BME280;22011;59.912;30.300;2023-02-15T09:18:52;102562.38;;;3.74;64.55
35918;BME280;22011;59.912;30.300;2023-02-15T09:21:22;102555.09;;;3.79;63.54
35918;BME280;22011;59.912;30.300;2023-02-15T09:23:54;102551.97;;;3.88;63.43
35918;BME280;22011;59.912;30.300;2023-02-15T09:26:23;102545.63;;;3.92;63.49
35918;BME280;22011;59.912;30.300;2023-02-15T09:28:53;102547.16;;;3.96;63.50
35918;BME280;22011;59.912;30.300;2023-02-15T09:31:24;102552.97;;;4.03;62.42
35918;BME280;22011;59.912;30.300;2023-02-15T09:33:52;102552.75;;;4.07;63.39
35918;BME280;22011;59.912;30.300;2023-02-15T09:36:22;102550.03;;;4.09;62.85
35918;BME280;22011;59.912;30.300;2023-02-15T09:38:55;102544.50;;;4.13;62.84
35918;BME280;22011;59.912;30.300;2023-02-15T09:41:50;102548.50;;;4.20;64.43
35918;BME280;22011;59.912;30.300;2023-02-15T09:44:30;102546.97;;;4.16;63.04
35918;BME280;22011;59.912;30.300;2023-02-15T09:47:19;102545.38;;;4.30;63.99
35918;BME280;22011;59.912;30.300;2023-02-15T09:49:55;102548.50;;;4.20;63.65
35918;BME280;22011;59.912;30.300;2023-02-15T09:52:48;102551.50;;;4.30;64.37
35918;BME280;22011;59.912;30.300;2023-02-15T09:55:35;102554.47;;;4.24;63.52
35918;BME280;22011;59.912;30.300;2023-02-15T09:58:10;102554.13;;;4.14;63.28
35918;BME280;22011;59.912;30.300;2023-02-15T10:00:47;102557.34;;;4.19;62.77
35918;BME280;22011;59.912;30.300;2023-02-15T10:03:37;102559.19;;;4.35;62.49
35918;BME280;22011;59.912;30.300;2023-02-15T10:06:20;102564.47;;;4.35;63.63
35918;BME280;22011;59.912;30.300;2023-02-15T10:09:08;102561.22;;;4.30;64.36
35918;BME280;22011;59.912;30.300;2023-02-15T10:11:50;102556.09;;;4.26;63.12
35918;BME280;22011;59.912;30.300;2023-02-15T10:14:38;102545.31;;;4.31;63.67
35918;BME280;22011;59.912;30.300;2023-02-15T10:17:21;102549.13;;;4.25;63.92
35918;BME280;22011;59.912;30.300;2023-02-15T10:20:03;102554.22;;;4.28;64.56
35918;BME280;22011;59.912;30.300;2023-02-15T10:22:46;102550.66;;;4.30;63.80
35918;BME280;22011;59.912;30.300;2023-02-15T10:25:26;102547.09;;;4.31;63.55
35918;BME280;22011;59.912;30.300;2023-02-15T10:28:04;102547.09;;;4.31;64.11
35918;BME280;22011;59.912;30.300;2023-02-15T10:30:41;102544.38;;;4.32;63.67
35918;BME280;22011;59.912;30.300;2023-02-15T10:33:16;102544.78;;;4.24;63.88
35918;BME280;22011;59.912;30.300;2023-02-15T10:35:54;102539.03;;;4.16;63.46
35918;BME280;22011;59.912;30.300;2023-02-15T10:38:32;102522.47;;;4.14;64.09
35918;BME280;22011;59.912;30.300;2023-02-15T10:41:10;102527.66;;;4.16;63.94
35918;BME280;22011;59.912;30.300;2023-02-15T10:43:58;102521.03;;;4.24;63.33
35918;BME280;22011;59.912;30.300;2023-02-15T10:46:55;102524.50;;;4.25;64.61
35918;BME280;22011;59.912;30.300;2023-02-15T10:49:38;102531.25;;;4.15;64.93
35918;BME280;22011;59.912;30.300;2023-02-15T10:52:21;102528.69;;;4.13;64.80
35918;BME280;22011;59.912;30.300;2023-02-15T10:55:02;102529.00;;;4.07;65.17
35918;BME280;22011;59.912;30.300;2023-02-15T10:57:43;102528.41;;;4.18;65.27
35918;BME280;22011;59.912;30.300;2023-02-15T11:00:23;102515.91;;;4.21;64.94
35918;BME280;22011;59.912;30.300;2023-02-15T11:03:11;102509.28;;;4.30;63.85
35918;BME280;22011;59.912;30.300;2023-02-15T11:05:52;102509.53;;;4.25;64.41
35918;BME280;22011;59.912;30.300;2023-02-15T11:08:24;102521.19;;;4.21;64.76
35918;BME280;22011;59.912;30.300;2023-02-15T11:10:55;102512.66;;;4.16;65.14
35918;BME280;22011;59.912;30.300;2023-02-15T11:13:29;102523.97;;;4.18;63.83
35918;BME280;22011;59.912;30.300;2023-02-15T11:16:04;102518.91;;;4.31;63.71
35918;BME280;22011;59.912;30.300;2023-02-15T11:18:36;102521.47;;;4.33;63.13
35918;BME280;22011;59.912;30.300;2023-02-15T11:21:11;102513.22;;;4.39;63.80
35918;BME280;22011;59.912;30.300;2023-02-15T11:23:42;102526.41;;;4.39;63.31
35918;BME280;22011;59.912;30.300;2023-02-15T11:26:13;102526.16;;;4.43;64.22
35918;BME280;22011;59.912;30.300;2023-02-15T11:28:46;102525.00;;;4.49;62.77
35918;BME280;22011;59.912;30.300;2023-02-15T11:31:18;102521.25;;;4.53;63.59
35918;BME280;22011;59.912;30.300;2023-02-15T11:33:49;102529.41;;;4.48;64.41
35918;BME280;22011;59.912;30.300;2023-02-15T11:36:21;102520.66;;;4.48;63.91
35918;BME280;22011;59.912;30.300;2023-02-15T11:38:54;102509.84;;;4.52;63.59
35918;BME280;22011;59.912;30.300;2023-02-15T11:41:28;102522.34;;;4.49;63.56
35918;BME280;22011;59.912;30.300;2023-02-15T11:44:00;102520.66;;;4.48;64.16
35918;BME280;22011;59.912;30.300;2023-02-15T11:46:33;102518.16;;;4.45;64.76
35918;BME280;22011;59.912;30.300;2023-02-15T11:49:01;102514.75;;;4.43;64.43
35918;BME280;22011;59.912;30.300;2023-02-15T11:51:29;102512.19;;;4.41;64.72
35918;BME280;22011;59.912;30.300;2023-02-15T11:53:56;102507.78;;;4.42;64.95
35918;BME280;22011;59.912;30.300;2023-02-15T11:56:25;102506.50;;;4.49;64.16
35918;BME280;22011;59.912;30.300;2023-02-15T11:58:56;102505.41;;;4.53;64.56
35918;BME280;22011;59.912;30.300;2023-02-15T12:01:28;102506.50;;;4.49;64.92
35918;BME280;22011;59.912;30.300;2023-02-15T12:04:01;102504.97;;;4.45;65.57
35918;BME280;22011;59.912;30.300;2023-02-15T12:06:34;102501.81;;;4.38;65.37
35918;BME280;22011;59.912;30.300;2023-02-15T12:09:10;102507.09;;;4.38;65.21
35918;BME280;22011;59.912;30.300;2023-02-15T12:11:41;102505.78;;;4.30;64.73
35918;BME280;22011;59.912;30.300;2023-02-15T12:14:10;102501.47;;;4.28;64.95
35918;BME280;22011;59.912;30.300;2023-02-15T12:16:43;102499.59;;;4.31;64.66
35918;BME280;22011;59.912;30.300;2023-02-15T12:19:29;102500.47;;;4.47;65.17
35918;BME280;22011;59.912;30.300;2023-02-15T12:21:59;102502.38;;;4.27;64.92
35918;BME280;22011;59.912;30.300;2023-02-15T12:24:30;102501.63;;;4.25;65.26
35918;BME280;22011;59.912;30.300;2023-02-15T12:27:01;102504.34;;;4.24;64.92
35918;BME280;22011;59.912;30.300;2023-02-15T12:29:33;102510.47;;;4.24;65.15
35918;BME280;22011;59.912;30.300;2023-02-15T12:32:03;102500.69;;;4.26;65.05
35918;BME280;22011;59.912;30.300;2023-02-15T12:34:36;102497.56;;;4.36;65.29
35918;BME280;22011;59.912;30.300;2023-02-15T12:37:10;102495.84;;;4.35;63.92
35918;BME280;22011;59.912;30.300;2023-02-15T12:39:52;102500.63;;;4.44;64.50
35918;BME280;22011;59.912;30.300;2023-02-15T12:42:20;102493.22;;;4.35;63.89
35918;BME280;22011;59.912;30.300;2023-02-15T12:44:56;102495.34;;;4.44;64.53
35918;BME280;22011;59.912;30.300;2023-02-15T12:47:26;102503.00;;;4.33;64.38
35918;BME280;22011;59.912;30.300;2023-02-15T12:50:11;102496.97;;;4.46;65.24
35918;BME280;22011;59.912;30.300;2023-02-15T12:52:45;102505.47;;;4.36;63.99
35918;BME280;22011;59.912;30.300;2023-02-15T12:55:21;102504.22;;;4.43;64.55
35918;BME280;22011;59.912;30.300;2023-02-15T12:57:49;102506.56;;;4.32;64.04
35918;BME280;22011;59.912;30.300;2023-02-15T13:00:28;102513.06;;;4.42;64.73
35918;BME280;22011;59.912;30.300;2023-02-15T13:02:59;102515.50;;;4.29;64.27
35918;BME280;22011;59.912;30.300;2023-02-15T13:05:32;102516.09;;;4.34;64.69
35918;BME280;22011;59.912;30.300;2023-02-15T13:08:04;102521.38;;;4.34;64.21
35918;BME280;22011;59.912;30.300;2023-02-15T13:10:40;102515.00;;;4.38;64.35
35918;BME280;22011;59.912;30.300;2023-02-15T13:13:14;102514.75;;;4.43;64.14
35918;BME280;22011;59.912;30.300;2023-02-15T13:15:49;102525.16;;;4.46;64.17
35918;BME280;22011;59.912;30.300;2023-02-15T13:18:30;102518.19;;;4.60;63.69
35918;BME280;22011;59.912;30.300;2023-02-15T13:21:06;102522.63;;;4.60;64.39
35918;BME280;22011;59.912;30.300;2023-02-15T13:23:37;102522.34;;;4.49;63.85